createdAt,value
2023-03-17T00:00:46.318Z,21.83
2023-03-17T00:03:21.403Z,22.73
2023-03-17T00:05:49.284Z,20.93
2023-03-17T00:08:22.504Z,22.93
2023-03-17T00:10:50.382Z,21.92
2023-03-17T00:13:18.426Z,19.87
2023-03-17T00:15:48.312Z,18.33
2023-03-17T00:18:18.172Z,17.27
2023-03-17T00:20:47.332Z,14.87
2023-03-17T00:23:16.870Z,15.13
2023-03-17T00:25:46.016Z,18.43
2023-03-17T00:28:20.058Z,16.83
2023-03-17T00:30:48.513Z,17.40
2023-03-17T00:33:17.074Z,19.00
2023-03-17T00:35:47.350Z,14.07
2023-03-17T00:38:18.961Z,14.13
2023-03-17T00:40:49.755Z,11.43
2023-03-17T00:43:17.993Z,11.03
2023-03-17T00:45:45.528Z,11.90
2023-03-17T00:48:20.564Z,9.17
2023-03-17T00:50:48.224Z,10.93
2023-03-17T00:53:17.464Z,10.53
2023-03-17T00:55:46.069Z,10.77
2023-03-17T00:58:25.849Z,9.40
2023-03-17T01:00:54.180Z,9.37
2023-03-17T01:03:21.900Z,8.57
2023-03-17T01:05:50.342Z,7.83
2023-03-17T01:08:18.691Z,6.60
2023-03-17T01:10:46.416Z,6.80
2023-03-17T01:13:14.464Z,8.63
2023-03-17T01:15:47.033Z,10.03
2023-03-17T01:18:16.766Z,11.30
2023-03-17T01:20:44.843Z,15.17
2023-03-17T01:23:13.002Z,19.10
2023-03-17T01:25:43.458Z,19.10
2023-03-17T01:28:14.360Z,16.30
2023-03-17T01:30:43.021Z,14.37
2023-03-17T01:33:11.877Z,11.97
2023-03-17T01:35:39.985Z,8.17
2023-03-17T01:38:07.637Z,5.20
2023-03-17T01:40:37.923Z,4.97
2023-03-17T01:43:09.063Z,4.47
2023-03-17T01:45:55.338Z,4.97
2023-03-17T01:48:23.676Z,4.00
2023-03-17T01:50:51.349Z,4.57
2023-03-17T01:53:19.970Z,5.40
2023-03-17T01:55:48.016Z,6.30
2023-03-17T01:58:16.633Z,7.07
2023-03-17T02:00:44.956Z,7.73
2023-03-17T02:03:11.728Z,8.13
2023-03-17T02:05:39.465Z,6.37
2023-03-17T02:08:14.245Z,6.37
2023-03-17T02:10:42.955Z,7.03
2023-03-17T02:13:12.132Z,7.77
2023-03-17T02:15:43.802Z,8.00
2023-03-17T02:18:13.237Z,8.53
2023-03-17T02:20:40.796Z,7.73
2023-03-17T02:23:08.686Z,8.13
2023-03-17T02:25:37.178Z,7.37
2023-03-17T02:28:14.952Z,6.47
2023-03-17T02:30:42.945Z,6.77
2023-03-17T02:33:11.005Z,6.90
2023-03-17T02:35:39.165Z,6.57
2023-03-17T02:38:06.870Z,6.83
2023-03-17T02:40:35.501Z,6.67
2023-03-17T02:43:03.316Z,6.20
2023-03-17T02:45:30.964Z,6.80
2023-03-17T02:47:58.889Z,6.73
2023-03-17T02:50:28.488Z,6.70
2023-03-17T02:52:57.584Z,8.20
2023-03-17T02:55:25.140Z,6.67
2023-03-17T02:57:53.012Z,7.10
2023-03-17T03:00:20.764Z,6.67
2023-03-17T03:02:48.433Z,5.40
2023-03-17T03:05:16.160Z,5.27
2023-03-17T03:07:44.341Z,4.63
2023-03-17T03:10:12.342Z,4.67
2023-03-17T03:12:41.050Z,4.97
2023-03-17T03:15:10.353Z,5.87
2023-03-17T03:17:38.020Z,5.57
2023-03-17T03:20:05.437Z,5.37
2023-03-17T03:22:32.871Z,7.30
2023-03-17T03:25:00.490Z,7.00
2023-03-17T03:27:28.094Z,5.17
2023-03-17T03:29:54.616Z,6.60
2023-03-17T03:32:22.043Z,6.87
2023-03-17T03:34:49.860Z,7.60
2023-03-17T03:37:17.310Z,7.37
2023-03-17T03:39:45.473Z,6.67
2023-03-17T03:42:13.014Z,7.10
2023-03-17T03:44:40.737Z,8.20
2023-03-17T03:47:08.070Z,7.90
2023-03-17T03:49:35.677Z,7.93
2023-03-17T03:52:03.188Z,6.73
2023-03-17T03:54:30.860Z,7.23
2023-03-17T03:56:58.339Z,8.70
2023-03-17T03:59:25.879Z,6.90
2023-03-17T04:01:53.380Z,7.00
2023-03-17T04:04:21.437Z,6.30
2023-03-17T04:06:49.077Z,5.83
2023-03-17T04:09:16.997Z,5.87
2023-03-17T04:11:44.696Z,5.33
2023-03-17T04:14:12.278Z,5.60
2023-03-17T04:16:43.189Z,5.47
2023-03-17T04:19:11.937Z,6.10
2023-03-17T04:21:39.630Z,5.20
2023-03-17T04:24:07.535Z,7.07
2023-03-17T04:26:35.122Z,5.63
2023-03-17T04:29:02.857Z,5.77
2023-03-17T04:31:30.501Z,6.00
2023-03-17T04:33:58.071Z,4.80
2023-03-17T04:36:25.875Z,4.70
2023-03-17T04:38:53.470Z,4.83
2023-03-17T04:41:21.291Z,4.97
2023-03-17T04:43:48.839Z,5.10
2023-03-17T04:46:16.969Z,5.23
2023-03-17T04:48:43.557Z,4.20
2023-03-17T04:51:11.933Z,4.53
2023-03-17T04:53:39.678Z,4.47
2023-03-17T04:56:06.413Z,4.70
2023-03-17T04:58:33.860Z,4.70
2023-03-17T05:01:03.221Z,5.27
2023-03-17T05:03:30.418Z,5.43
2023-03-17T05:06:01.740Z,5.50
2023-03-17T05:08:29.159Z,6.43
2023-03-17T05:10:56.166Z,5.13
2023-03-17T05:13:24.290Z,5.57
2023-03-17T05:15:52.665Z,5.60
2023-03-17T05:18:19.674Z,6.40
2023-03-17T05:20:47.185Z,5.53
2023-03-17T05:23:14.943Z,4.73
2023-03-17T05:25:41.782Z,5.27
2023-03-17T05:28:09.429Z,4.97
2023-03-17T05:30:39.708Z,4.80
2023-03-17T05:33:06.445Z,4.70
2023-03-17T05:35:34.002Z,4.80
2023-03-17T05:38:01.830Z,4.50
2023-03-17T05:40:28.913Z,4.87
2023-03-17T05:42:56.733Z,5.97
2023-03-17T05:45:24.352Z,5.67
2023-03-17T05:47:50.987Z,5.30
2023-03-17T05:50:20.419Z,5.23
2023-03-17T05:52:48.610Z,5.63
2023-03-17T05:55:16.003Z,5.63
2023-03-17T05:57:43.713Z,5.03
2023-03-17T06:00:12.791Z,5.80
2023-03-17T06:02:39.551Z,5.27
2023-03-17T06:05:08.955Z,6.97
2023-03-17T06:07:50.761Z,6.10
2023-03-17T06:10:21.480Z,6.03
2023-03-17T06:12:49.171Z,5.00
2023-03-17T06:15:17.165Z,5.07
2023-03-17T06:17:45.248Z,5.37
2023-03-17T06:20:14.130Z,5.35
2023-03-17T06:22:51.680Z,5.13
2023-03-17T06:25:28.468Z,5.65
2023-03-17T06:27:56.266Z,5.10
2023-03-17T06:30:23.966Z,5.45
2023-03-17T06:32:51.611Z,5.30
2023-03-17T06:35:18.374Z,6.18
2023-03-17T06:37:46.050Z,5.53
2023-03-17T06:40:14.181Z,6.35
2023-03-17T06:42:40.727Z,6.22
2023-03-17T06:45:10.094Z,6.15
2023-03-17T06:47:40.616Z,6.93
2023-03-17T06:50:10.404Z,7.45
2023-03-17T06:52:37.763Z,7.03
2023-03-17T06:55:05.707Z,8.23
2023-03-17T06:57:32.400Z,7.78
2023-03-17T06:59:59.205Z,8.30
2023-03-17T07:02:27.693Z,7.53
2023-03-17T07:04:54.650Z,9.10
2023-03-17T07:07:21.289Z,8.13
2023-03-17T07:09:48.869Z,7.43
2023-03-17T07:12:16.274Z,7.38
2023-03-17T07:14:43.667Z,8.25
2023-03-17T07:17:12.745Z,8.35
2023-03-17T07:19:40.769Z,7.55
2023-03-17T07:22:08.209Z,8.35
2023-03-17T07:24:35.976Z,8.45
2023-03-17T07:27:02.498Z,5.53
2023-03-17T07:29:29.885Z,5.72
2023-03-17T07:31:57.886Z,6.00
2023-03-17T07:34:24.518Z,7.35
2023-03-17T07:36:52.238Z,6.15
2023-03-17T07:39:20.765Z,5.35
2023-03-17T07:41:53.056Z,4.55
2023-03-17T07:44:19.875Z,17.20
2023-03-17T07:46:47.617Z,21.17
2023-03-17T07:49:15.225Z,14.02
2023-03-17T07:51:43.404Z,21.80
2023-03-17T07:54:13.766Z,5.38
2023-03-17T07:56:41.901Z,12.63
2023-03-17T07:59:08.883Z,9.43
2023-03-17T08:01:36.863Z,6.38
2023-03-17T08:04:05.517Z,4.30
2023-03-17T08:06:32.578Z,4.45
2023-03-17T08:09:00.205Z,14.57
2023-03-17T08:11:29.354Z,6.15
2023-03-17T08:13:56.487Z,55.42
2023-03-17T08:16:23.955Z,18.38
2023-03-17T08:18:51.658Z,48.72
2023-03-17T08:21:18.215Z,45.53
2023-03-17T08:23:45.529Z,34.88
2023-03-17T08:26:15.660Z,7.43
2023-03-17T08:28:43.943Z,5.60
2023-03-17T08:31:14.718Z,5.03
2023-03-17T08:33:42.679Z,6.70
2023-03-17T08:36:11.605Z,13.50
2023-03-17T08:38:39.413Z,15.18
2023-03-17T08:41:09.125Z,14.57
2023-03-17T08:43:37.448Z,22.00
2023-03-17T08:46:07.878Z,5.88
2023-03-17T08:48:35.543Z,11.10
2023-03-17T08:51:03.204Z,11.30
2023-03-17T08:53:30.107Z,5.55
2023-03-17T08:55:57.312Z,5.28
2023-03-17T08:58:25.687Z,4.53
2023-03-17T09:00:53.230Z,4.50
2023-03-17T09:03:22.227Z,5.70
2023-03-17T09:05:50.631Z,4.43
2023-03-17T09:08:18.687Z,5.75
2023-03-17T09:10:46.368Z,4.38
2023-03-17T09:13:14.211Z,5.72
2023-03-17T09:15:41.375Z,51.90
2023-03-17T09:18:10.162Z,24.83
2023-03-17T09:20:37.777Z,15.68
2023-03-17T09:23:09.567Z,11.13
2023-03-17T09:25:38.165Z,11.07
2023-03-17T09:28:04.783Z,8.85
2023-03-17T09:30:33.509Z,8.48
2023-03-17T09:33:01.411Z,7.05
2023-03-17T09:35:29.159Z,7.20
2023-03-17T09:37:56.619Z,5.80
2023-03-17T09:40:33.412Z,4.75
2023-03-17T09:43:06.955Z,4.43
2023-03-17T09:45:36.587Z,4.93
2023-03-17T09:48:05.706Z,5.20
2023-03-17T09:50:46.291Z,11.68
2023-03-17T09:53:17.142Z,11.35
2023-03-17T09:55:45.198Z,7.00
2023-03-17T09:58:13.167Z,4.72
2023-03-17T10:00:41.132Z,4.13
2023-03-17T10:03:10.412Z,3.60
2023-03-17T10:05:38.573Z,4.53
2023-03-17T10:08:15.609Z,23.63
2023-03-17T10:10:55.759Z,3.88
2023-03-17T10:13:42.564Z,4.60
2023-03-17T10:16:13.092Z,3.00
2023-03-17T10:18:56.004Z,5.05
2023-03-17T10:21:25.585Z,4.32
2023-03-17T10:23:54.845Z,10.35
2023-03-17T10:26:25.730Z,14.98
2023-03-17T10:28:54.025Z,4.18
2023-03-17T10:31:27.986Z,4.22
2023-03-17T10:33:55.699Z,3.95
2023-03-17T10:36:38.754Z,4.85
2023-03-17T10:39:08.161Z,3.83
2023-03-17T10:41:39.807Z,21.15
2023-03-17T10:44:12.349Z,11.93
2023-03-17T10:46:41.304Z,3.60
2023-03-17T10:49:18.236Z,3.67
2023-03-17T10:51:47.964Z,4.35
2023-03-17T10:54:19.912Z,3.47
2023-03-17T10:56:48.215Z,4.25
2023-03-17T10:59:19.576Z,3.40
2023-03-17T11:02:13.721Z,4.20
2023-03-17T11:04:42.634Z,3.53
2023-03-17T11:07:18.357Z,4.20
2023-03-17T11:09:49.528Z,6.68
2023-03-17T11:12:23.026Z,8.10
2023-03-17T11:14:49.960Z,4.03
2023-03-17T11:17:25.976Z,3.83
2023-03-17T11:19:53.735Z,4.43
2023-03-17T11:22:30.869Z,4.45
2023-03-17T11:25:10.251Z,5.57
2023-03-17T11:27:56.822Z,4.78
2023-03-17T11:30:23.688Z,5.10
2023-03-17T11:33:01.149Z,5.95
2023-03-17T11:35:35.341Z,4.97
2023-03-17T11:38:08.404Z,4.28
2023-03-17T11:40:36.060Z,5.70
2023-03-17T11:43:05.126Z,4.55
2023-03-17T11:45:35.917Z,4.18
2023-03-17T11:48:07.116Z,4.00
2023-03-17T11:50:51.401Z,2.72
2023-03-17T11:53:22.109Z,3.65
2023-03-17T11:55:56.582Z,4.57
2023-03-17T11:58:34.523Z,3.25
2023-03-17T12:01:03.205Z,3.55
2023-03-17T12:03:48.753Z,3.67
2023-03-17T12:06:18.060Z,3.65
2023-03-17T12:08:48.410Z,3.40
2023-03-17T12:11:19.879Z,3.80
2023-03-17T12:13:53.219Z,3.63
2023-03-17T12:16:35.490Z,4.43
2023-03-17T12:19:28.136Z,3.90
2023-03-17T12:22:01.761Z,4.20
2023-03-17T12:24:37.394Z,5.13
2023-03-17T12:27:06.252Z,4.93
2023-03-17T12:29:37.335Z,4.18
2023-03-17T12:32:20.480Z,8.63
2023-03-17T12:34:48.324Z,10.60
2023-03-17T12:37:16.833Z,6.95
2023-03-17T12:39:51.140Z,4.38
2023-03-17T12:42:31.915Z,5.38
2023-03-17T12:45:02.514Z,4.80
2023-03-17T12:47:30.180Z,4.75
2023-03-17T12:50:16.971Z,4.65
2023-03-17T12:52:46.491Z,13.60
2023-03-17T12:55:16.497Z,9.23
2023-03-17T12:57:44.806Z,5.85
2023-03-17T13:00:26.240Z,30.73
2023-03-17T13:03:09.147Z,27.92
2023-03-17T13:05:37.527Z,4.65
2023-03-17T13:08:06.484Z,4.28
2023-03-17T13:10:43.513Z,4.38
2023-03-17T13:13:20.581Z,5.88
2023-03-17T13:15:47.088Z,13.00
2023-03-17T13:18:16.876Z,4.03
2023-03-17T13:20:46.391Z,3.72
2023-03-17T13:23:15.678Z,4.13
2023-03-17T13:25:43.089Z,4.00
2023-03-17T13:28:12.425Z,6.10
2023-03-17T13:30:39.014Z,8.20
2023-03-17T13:33:13.856Z,7.10
2023-03-17T13:35:48.662Z,4.93
2023-03-17T13:38:19.293Z,4.38
2023-03-17T13:41:00.421Z,4.88
2023-03-17T13:43:43.355Z,6.25
2023-03-17T13:46:29.850Z,8.40
2023-03-17T13:48:57.809Z,7.15
2023-03-17T13:51:28.100Z,4.97
2023-03-17T13:54:08.482Z,5.82
2023-03-17T13:56:37.483Z,6.05
2023-03-17T13:59:05.810Z,5.53
2023-03-17T14:01:36.915Z,9.93
2023-03-17T14:04:06.278Z,4.97
2023-03-17T14:06:37.991Z,5.25
2023-03-17T14:09:17.924Z,5.10
2023-03-17T14:11:46.343Z,3.95
2023-03-17T14:14:26.075Z,3.78
2023-03-17T14:17:07.855Z,3.72
2023-03-17T14:19:35.709Z,3.50
2023-03-17T14:22:05.177Z,2.83
2023-03-17T14:24:33.797Z,3.80
2023-03-17T14:27:10.133Z,7.30
2023-03-17T14:29:38.328Z,5.40
2023-03-17T14:32:07.711Z,5.03
2023-03-17T14:34:35.698Z,3.72
2023-03-17T14:37:04.022Z,6.63
2023-03-17T14:39:31.823Z,5.35
2023-03-17T14:42:03.762Z,5.28
2023-03-17T14:44:41.227Z,5.30
2023-03-17T14:47:14.616Z,4.32
2023-03-17T14:49:42.254Z,12.98
2023-03-17T14:52:17.626Z,5.00
2023-03-17T14:54:45.498Z,14.38
2023-03-17T14:57:16.898Z,4.40
2023-03-17T14:59:56.168Z,6.20
2023-03-17T15:02:26.468Z,10.55
2023-03-17T15:04:55.866Z,4.13
2023-03-17T15:07:43.212Z,3.10
2023-03-17T15:10:17.130Z,6.53
2023-03-17T15:12:47.667Z,3.35
2023-03-17T15:15:22.158Z,3.35
2023-03-17T15:17:52.195Z,3.25
2023-03-17T15:20:19.953Z,3.90
2023-03-17T15:22:57.319Z,3.92
2023-03-17T15:25:44.213Z,15.45
2023-03-17T15:28:16.389Z,4.20
2023-03-17T15:30:47.934Z,5.45
2023-03-17T15:33:24.952Z,6.75
2023-03-17T15:35:53.073Z,7.38
2023-03-17T15:38:22.348Z,7.65
2023-03-17T15:40:49.679Z,5.68
2023-03-17T15:43:18.391Z,4.90
2023-03-17T15:45:47.736Z,4.22
2023-03-17T15:48:22.718Z,5.47
2023-03-17T15:50:52.189Z,5.32
2023-03-17T15:53:20.475Z,4.40
2023-03-17T15:55:47.417Z,6.63
2023-03-17T15:58:14.412Z,5.75
2023-03-17T16:00:41.908Z,5.28
2023-03-17T16:03:21.906Z,7.70
2023-03-17T16:05:48.502Z,5.07
2023-03-17T16:08:15.767Z,8.40
2023-03-17T16:10:43.388Z,8.02
2023-03-17T16:13:10.535Z,6.63
2023-03-17T16:15:39.975Z,8.13
2023-03-17T16:18:09.731Z,6.30
2023-03-17T16:20:39.338Z,4.90
2023-03-17T16:23:12.574Z,5.45
2023-03-17T16:25:39.051Z,6.00
2023-03-17T16:28:16.109Z,7.57
2023-03-17T16:30:43.924Z,7.28
2023-03-17T16:33:20.231Z,7.32
2023-03-17T16:35:50.165Z,9.15
2023-03-17T16:38:18.485Z,9.02
2023-03-17T16:40:47.247Z,14.32
2023-03-17T16:43:36.418Z,14.32
2023-03-17T16:46:03.875Z,19.75
2023-03-17T16:48:31.872Z,15.80
2023-03-17T16:51:00.181Z,21.10
2023-03-17T16:53:26.721Z,18.10
2023-03-17T16:55:54.704Z,16.40
2023-03-17T16:58:23.166Z,19.63
2023-03-17T17:00:50.602Z,17.42
2023-03-17T17:03:18.579Z,17.98
2023-03-17T17:05:46.278Z,19.13
2023-03-17T17:08:12.765Z,20.38
2023-03-17T17:10:40.710Z,18.67
2023-03-17T17:13:08.056Z,17.85
2023-03-17T17:15:36.370Z,15.00
2023-03-17T17:18:04.508Z,17.23
2023-03-17T17:20:32.860Z,16.40
2023-03-17T17:23:02.154Z,15.75
2023-03-17T17:25:30.464Z,14.63
2023-03-17T17:27:58.326Z,14.25
2023-03-17T17:30:28.494Z,11.25
2023-03-17T17:32:57.208Z,12.77
2023-03-17T17:35:25.062Z,12.25
2023-03-17T17:37:51.804Z,12.25
2023-03-17T17:40:20.237Z,9.15
2023-03-17T17:42:48.227Z,8.95
2023-03-17T17:45:17.075Z,9.55
2023-03-17T17:47:44.594Z,8.27
2023-03-17T17:50:16.680Z,5.78
2023-03-17T17:52:44.704Z,6.28
2023-03-17T17:55:13.030Z,5.63
2023-03-17T17:57:39.952Z,7.13
2023-03-17T18:00:07.962Z,7.53
2023-03-17T18:02:35.379Z,6.80
2023-03-17T18:05:02.298Z,7.72
2023-03-17T18:07:29.527Z,6.88
2023-03-17T18:09:56.076Z,6.20
2023-03-17T18:12:23.562Z,7.38
2023-03-17T18:14:49.999Z,7.72
2023-03-17T18:17:21.733Z,9.77
2023-03-17T18:19:54.768Z,10.45
2023-03-17T18:22:21.689Z,10.82
2023-03-17T18:24:52.221Z,9.57
2023-03-17T18:27:18.654Z,8.70
2023-03-17T18:29:47.741Z,9.05
2023-03-17T18:32:15.174Z,8.02
2023-03-17T18:34:44.790Z,10.30
2023-03-17T18:37:14.211Z,11.18
2023-03-17T18:39:41.830Z,12.10
2023-03-17T18:42:09.338Z,13.20
2023-03-17T18:44:36.132Z,13.20
2023-03-17T18:47:03.292Z,14.80
2023-03-17T18:49:30.748Z,14.90
2023-03-17T18:51:59.738Z,14.45
2023-03-17T18:54:28.313Z,16.88
2023-03-17T18:56:55.837Z,13.13
2023-03-17T18:59:23.009Z,15.68
2023-03-17T19:01:50.292Z,15.90
2023-03-17T19:04:17.482Z,13.98
2023-03-17T19:06:45.272Z,13.95
2023-03-17T19:09:11.805Z,15.00
2023-03-17T19:11:42.430Z,15.60
2023-03-17T19:14:09.896Z,11.98
2023-03-17T19:16:36.439Z,15.63
2023-03-17T19:19:03.828Z,18.02
2023-03-17T19:21:31.120Z,13.98
2023-03-17T19:23:59.526Z,12.35
2023-03-17T19:26:26.092Z,12.45
2023-03-17T19:28:56.966Z,9.63
2023-03-17T19:31:25.346Z,9.88
2023-03-17T19:33:52.675Z,11.02
2023-03-17T19:36:20.715Z,10.57
2023-03-17T19:38:47.224Z,9.02
2023-03-17T19:41:15.614Z,8.52
2023-03-17T19:43:42.971Z,9.63
2023-03-17T19:46:11.938Z,8.82
2023-03-17T19:48:39.115Z,9.38
2023-03-17T19:51:06.953Z,7.88
2023-03-17T19:53:34.442Z,10.57
2023-03-17T19:56:01.605Z,8.73
2023-03-17T19:58:28.122Z,7.55
2023-03-17T20:00:54.580Z,8.75
2023-03-17T20:03:22.690Z,8.60
2023-03-17T20:05:54.595Z,9.98
2023-03-17T20:08:22.661Z,7.50
2023-03-17T20:10:52.886Z,8.05
2023-03-17T20:13:19.937Z,8.52
2023-03-17T20:15:46.981Z,8.35
2023-03-17T20:18:13.554Z,8.40
2023-03-17T20:20:43.283Z,8.07
2023-03-17T20:23:09.704Z,9.80
2023-03-17T20:25:36.672Z,8.05
2023-03-17T20:28:04.342Z,7.57
2023-03-17T20:30:32.539Z,10.50
2023-03-17T20:33:00.040Z,12.38
2023-03-17T20:35:28.231Z,9.00
2023-03-17T20:37:57.185Z,7.85
2023-03-17T20:40:24.417Z,7.20
2023-03-17T20:42:52.093Z,7.70
2023-03-17T20:45:20.249Z,7.25
2023-03-17T20:47:47.816Z,8.05
2023-03-17T20:50:15.758Z,7.70
2023-03-17T20:52:43.496Z,6.25
2023-03-17T20:55:14.549Z,6.57
2023-03-17T20:57:42.705Z,6.32
2023-03-17T21:00:16.961Z,6.50
2023-03-17T21:02:50.934Z,7.13
2023-03-17T21:05:19.986Z,6.35
2023-03-17T21:07:48.024Z,6.30
2023-03-17T21:10:15.492Z,6.35
2023-03-17T21:12:42.135Z,5.90
2023-03-17T21:15:10.085Z,6.75
2023-03-17T21:17:38.884Z,6.55
2023-03-17T21:20:10.137Z,6.95
2023-03-17T21:22:38.343Z,7.18
2023-03-17T21:25:05.355Z,6.15
2023-03-17T21:27:31.804Z,6.85
2023-03-17T21:29:59.355Z,7.15
2023-03-17T21:32:27.098Z,8.48
2023-03-17T21:34:55.003Z,6.40
2023-03-17T21:37:21.586Z,6.63
2023-03-17T21:39:49.336Z,6.28
2023-03-17T21:42:16.045Z,7.57
2023-03-17T21:44:43.386Z,6.45
2023-03-17T21:47:10.584Z,5.55
2023-03-17T21:49:37.726Z,5.40
2023-03-17T21:52:05.019Z,7.00
2023-03-17T21:54:32.224Z,6.57
2023-03-17T21:56:59.193Z,6.30
2023-03-17T21:59:26.473Z,4.80
2023-03-17T22:01:54.012Z,4.85
2023-03-17T22:04:20.952Z,4.93
2023-03-17T22:06:48.177Z,5.90
2023-03-17T22:09:16.512Z,5.18
2023-03-17T22:11:44.820Z,5.07
2023-03-17T22:14:11.925Z,5.65
2023-03-17T22:16:39.416Z,4.90
2023-03-17T22:19:07.193Z,6.82
2023-03-17T22:21:34.008Z,4.70
2023-03-17T22:24:01.323Z,5.00
2023-03-17T22:26:29.586Z,5.32
2023-03-17T22:28:57.065Z,5.77
2023-03-17T22:31:25.214Z,5.30
2023-03-17T22:33:54.935Z,5.75
2023-03-17T22:36:22.860Z,5.47
2023-03-17T22:38:50.820Z,5.72
2023-03-17T22:41:22.814Z,5.10
2023-03-17T22:43:50.662Z,6.53
2023-03-17T22:46:18.777Z,5.43
2023-03-17T22:48:47.067Z,5.97
2023-03-17T22:51:15.169Z,4.93
2023-03-17T22:53:42.110Z,5.47
2023-03-17T22:56:09.921Z,4.53
2023-03-17T22:58:36.910Z,4.60
2023-03-17T23:01:06.257Z,5.68
2023-03-17T23:03:34.564Z,6.05
2023-03-17T23:06:02.827Z,5.85
2023-03-17T23:08:32.118Z,5.82
2023-03-17T23:11:01.425Z,5.75
2023-03-17T23:13:28.711Z,4.75
2023-03-17T23:15:56.744Z,6.05
2023-03-17T23:18:24.495Z,5.53
2023-03-17T23:20:52.657Z,5.50
2023-03-17T23:23:20.610Z,5.55
2023-03-17T23:25:47.838Z,5.82
2023-03-17T23:28:16.218Z,5.53
2023-03-17T23:30:44.255Z,5.50
2023-03-17T23:33:11.826Z,5.05
2023-03-17T23:35:38.881Z,5.15
2023-03-17T23:38:06.216Z,4.95
2023-03-17T23:40:33.261Z,4.67
2023-03-17T23:43:00.865Z,5.43
2023-03-17T23:45:28.810Z,4.97
2023-03-17T23:47:57.623Z,4.93
2023-03-17T23:50:24.319Z,5.75
2023-03-17T23:52:50.957Z,6.05
2023-03-17T23:55:18.786Z,5.00
2023-03-17T23:57:47.379Z,5.65
